Historique des mesures à Cassis (13260), France
Quotidien Résumé Aout 21, 2017 Unités:  Métrique    US   Métrique/US
« Précédent (Jour)
Suivant (Jour) »
Quotidien Hebdomadaire Mensuel Annuel Période au choix
  Maximum: Minimum: Moyenne:
Température: TemperatureC °C 21.7 °C 24.7 °C
Point de rosée: DewpointC °C 8.6 °C 10.7 °C
Humidité: Humidity % 34 % 39 %
Vitesse du vent: 0 km/h 0 km/h 5 km/h
Rafales: 0 km/h - -
Vent:- - ESE
Pression: PressurehPa hPa 1012.8 hPa -
Précipitations: 0.0 mm    
Historical Graphs
 
 
Mesures pour : Aout 21, 2017
Heure Temperature Point de rosée Pression Vent Vitesse du vent Rafales Humidité Pluie (par heure) Conditions
TemperatureC °C DewpointC °C PressurehPa hPa Calm     Humidity % HourlyPrecipMM mm SoftwareType W/m2
00:11 22.8 °C 9.2 °C 1013.4 hPa North 8 km/h 8 km/h 42 % 0.0 mm open2300-1.11 W/m2
01:11 22.3 °C 9.1 °C 1013.4 hPa North 8 km/h 8 km/h 43 % 0.0 mm open2300-1.11 W/m2
02:11 22.1 °C 8.9 °C 1013.4 hPa Calm   8 km/h 43 % 0.0 mm open2300-1.11 W/m2
03:11 22.3 °C 8.7 °C 1013.4 hPa North 2.9 km/h 6.9 km/h 42 % 0.0 mm open2300-1.11 W/m2
04:11 22.1 °C 8.6 °C 1013.1 hPa NNE 9.3 km/h 9.3 km/h 42 % 0.0 mm open2300-1.11 W/m2
06:11 22.1 °C 8.9 °C 1013.4 hPa North 4.7 km/h 4.7 km/h 43 % 0.0 mm open2300-1.11 W/m2
07:11 21.7 °C 8.8 °C 1013.8 hPa North 3.4 km/h 9.3 km/h 44 % 0.0 mm open2300-1.11 W/m2
08:11 23.5 °C 9.8 °C 1014.4 hPa NNW 6.4 km/h 6.4 km/h 42 % 0.0 mm open2300-1.11 W/m2
09:11 25.1 °C 10.6 °C 1014.4 hPa Calm     40 % 0.0 mm open2300-1.11 W/m2
10:11 25.1 °C 11.3 °C 1014.8 hPa SSE 7.6 km/h 7.6 km/h 42 % 0.0 mm open2300-1.11 W/m2
11:11 28.9 °C 12.7 °C 1014.8 hPa SSE 7.6 km/h 7.6 km/h 37 % 0.0 mm open2300-1.11 W/m2
12:11 30.6 °C 12.9 °C 1014.8 hPa SSE 6.9 km/h 15.6 km/h 34 % 0.0 mm open2300-1.11 W/m2
13:11 30.8 °C 13.5 °C 1014.8 hPa SSW 10.9 km/h 10.9 km/h 35 % 0.0 mm open2300-1.11 W/m2
14:11 30.8 °C 13.5 °C 1014.4 hPa South 11.6 km/h 15.6 km/h 35 % 0.0 mm open2300-1.11 W/m2
15:11 30.4 °C 13.2 °C 1014.4 hPa Calm   11.6 km/h 35 % 0.0 mm open2300-1.11 W/m2
16:11 30.3 °C 13.5 °C 1013.8 hPa SSE 8.9 km/h 17.9 km/h 36 % 0.0 mm open2300-1.11 W/m2
17:11 29.4 °C 13.6 °C 1013.4 hPa SE 9.3 km/h 9.3 km/h 38 % 0.0 mm open2300-1.11 W/m2
18:11 28.4 °C 13.6 °C 1013.1 hPa SSE 6.9 km/h 6.9 km/h 40 % 0.0 mm open2300-1.11 W/m2
19:11 27.4 °C 12.7 °C 1012.8 hPa SE 5.1 km/h 7.6 km/h 40 % 0.0 mm open2300-1.11 W/m2
20:11 26.3 °C 12.3 °C 1013.1 hPa Calm     42 % 0.0 mm open2300-1.11 W/m2
21:11 24.8 °C 12.0 °C 1013.4 hPa Calm     45 % 0.0 mm open2300-1.11 W/m2
22:11 23.8 °C 10.4 °C 1013.8 hPa NNE 2.9 km/h 2.9 km/h 43 % 0.0 mm open2300-1.11 W/m2
23:11 22.7 °C 9.4 °C 1013.8 hPa Calm     43 % 0.0 mm open2300-1.11 W/m2
Observations météo à CASSIS
WU-History script by Weather Underground - 1 mb